Accueil
METAR-TAF:

METAR-TAF

Aéroports :

Morrisville-Stowe State Airport

Morrisville, Vermont, États-Unis

latitude: 44-32-10N, longitude: 072-36-58W, altitude: 223 m

Observation

Le bulletin a été fait il y a 36 minutes, à 20:54 UTC
Vent 9 kt de sud/sud-ouest
Température 16°C
Humidité 45%
Pression 1011 hPa
Visibilité: 16.1 km
Ciel clair

METAR: KMVL 192054Z AUTO 20009KT 10SM CLR 16/04 A2985 RMK AO2 SLP112 T01610044 56021

Heure: 17:30 (21:30 UTC)


TAF: absent

Observations et prévisions météorologiques de plus de 4000 aéroports (messages METAR et TAF).

Les stations disponibles sont représentées par des disques jaunes et rouges sur la carte.

Passer la souris dessus pour voir le nom de la station.

Cliquer dessus pour voir les observations et prévisions météorologiques.

Pour changer de carte: cliquez sur les boutons verts avec une croix noire pour zoomer, sur le bouton vert avec un tiret pour effectuer un zoom arrière, ou sur les flèches vertes pour les cartes adjacentes.


METAR-TAF: